createdAt,value
2023-02-13T00:04:28.381Z,27.37
2023-02-13T00:09:32.580Z,28.87
2023-02-13T00:14:36.560Z,23.07
2023-02-13T00:19:39.922Z,30.23
2023-02-13T00:24:44.117Z,26.17
2023-02-13T00:29:46.994Z,26.17
2023-02-13T00:34:49.856Z,28.23
2023-02-13T00:39:54.295Z,29.77
2023-02-13T00:44:58.794Z,24.73
2023-02-13T00:50:01.613Z,26.90
2023-02-13T00:55:06.431Z,28.77
2023-02-13T01:00:10.298Z,23.20
2023-02-13T01:05:13.296Z,24.50
2023-02-13T01:10:17.850Z,30.27
2023-02-13T01:15:20.882Z,28.93
2023-02-13T01:20:25.640Z,26.70
2023-02-13T01:25:29.882Z,25.30
2023-02-13T01:30:34.057Z,27.23
2023-02-13T01:35:36.889Z,23.10
2023-02-13T01:40:47.326Z,21.80
2023-02-13T01:45:52.455Z,27.43
2023-02-13T01:50:59.888Z,26.67
2023-02-13T01:56:07.061Z,24.03
2023-02-13T02:01:10.327Z,28.83
2023-02-13T02:06:16.264Z,24.90
2023-02-13T02:11:27.155Z,22.80
2023-02-13T02:16:30.467Z,26.97
2023-02-13T02:21:48.889Z,23.10
2023-02-13T02:27:12.834Z,22.03
2023-02-13T02:32:24.537Z,22.87
2023-02-13T02:37:41.133Z,22.20
2023-02-13T02:42:49.676Z,25.70
2023-02-13T02:48:13.513Z,25.30
2023-02-13T02:53:30.155Z,28.23
2023-02-13T02:58:54.780Z,20.53
2023-02-13T03:04:17.641Z,22.33
2023-02-13T03:09:42.360Z,21.07
2023-02-13T03:14:45.363Z,28.93
2023-02-13T03:20:16.621Z,26.27
2023-02-13T03:25:30.291Z,26.23
2023-02-13T03:30:41.917Z,26.40
2023-02-13T03:36:08.219Z,27.77
2023-02-13T03:41:21.530Z,35.23
2023-02-13T03:46:25.891Z,28.43
2023-02-13T03:51:32.887Z,35.63
2023-02-13T03:56:53.804Z,33.03
2023-02-13T04:02:02.144Z,34.00
2023-02-13T04:07:08.568Z,31.73
2023-02-13T04:12:17.005Z,41.50
2023-02-13T04:17:24.817Z,36.03
2023-02-13T04:22:29.208Z,42.43
2023-02-13T04:27:32.057Z,36.00
2023-02-13T04:32:34.884Z,40.83
2023-02-13T04:37:39.098Z,31.67
2023-02-13T04:42:41.937Z,24.53
2023-02-13T04:47:45.254Z,31.80
2023-02-13T04:52:51.407Z,33.53
2023-02-13T04:57:54.546Z,32.10
2023-02-13T05:03:02.261Z,33.00
2023-02-13T05:08:06.827Z,26.87
2023-02-13T05:13:09.740Z,30.70
2023-02-13T05:18:12.570Z,26.93
2023-02-13T05:23:26.287Z,31.30
2023-02-13T05:28:46.468Z,29.53
2023-02-13T05:33:49.382Z,28.93
2023-02-13T05:38:53.591Z,25.13
2023-02-13T05:43:56.440Z,27.90
2023-02-13T05:48:59.391Z,30.77
2023-02-13T05:54:03.970Z,30.03
2023-02-13T05:59:06.973Z,26.50
2023-02-13T06:04:09.868Z,34.87
2023-02-13T06:09:14.208Z,23.73
2023-02-13T06:14:17.094Z,25.97
2023-02-13T06:19:19.948Z,22.67
2023-02-13T06:24:24.134Z,25.97
2023-02-13T06:29:26.930Z,27.87
2023-02-13T06:34:29.891Z,30.50
2023-02-13T06:39:34.143Z,28.53
2023-02-13T06:44:36.994Z,33.23
2023-02-13T06:49:39.894Z,24.57
2023-02-13T06:54:48.040Z,24.87
2023-02-13T06:59:51.237Z,25.27
2023-02-13T07:04:54.098Z,26.27
2023-02-13T07:09:58.226Z,23.97
2023-02-13T07:15:01.115Z,24.47
2023-02-13T07:20:05.082Z,25.97
2023-02-13T07:25:09.852Z,20.97
2023-02-13T07:30:13.325Z,25.67
2023-02-13T07:35:16.356Z,30.13
2023-02-13T07:40:20.851Z,22.80
2023-02-13T07:45:23.817Z,25.33
2023-02-13T07:50:27.055Z,22.00
2023-02-13T07:55:32.669Z,25.63
2023-02-13T08:00:35.552Z,26.87
2023-02-13T08:05:38.769Z,20.47
2023-02-13T08:11:00.272Z,26.33
2023-02-13T08:16:03.149Z,23.63
2023-02-13T08:21:06.421Z,20.77
2023-02-13T08:26:11.175Z,25.83
2023-02-13T08:31:14.546Z,25.17
2023-02-13T08:36:19.032Z,22.53
2023-02-13T08:41:23.410Z,19.80
2023-02-13T08:46:26.399Z,20.57
2023-02-13T08:56:57.748Z,24.03
2023-02-13T09:02:00.720Z,19.97
2023-02-13T09:07:03.667Z,26.27
2023-02-13T09:12:08.183Z,24.47
2023-02-13T09:17:11.111Z,24.93
2023-02-13T09:22:15.862Z,22.20
2023-02-13T09:27:20.036Z,20.10
2023-02-13T09:32:23.086Z,24.50
2023-02-13T09:37:26.022Z,21.93
2023-02-13T09:42:31.782Z,23.07
2023-02-13T09:47:37.711Z,22.43
2023-02-13T09:52:41.312Z,21.30
2023-02-13T09:57:49.768Z,27.13
2023-02-13T10:03:15.419Z,18.87
2023-02-13T10:08:30.409Z,21.77
2023-02-13T10:13:49.302Z,30.83
2023-02-13T10:18:55.711Z,24.10
2023-02-13T10:24:04.038Z,24.53
2023-02-13T10:29:29.620Z,30.33
2023-02-13T10:34:36.476Z,23.53
2023-02-13T10:39:39.256Z,34.83
2023-02-13T10:44:50.462Z,26.47
2023-02-13T10:50:04.985Z,24.47
2023-02-13T10:55:20.541Z,23.37
2023-02-13T11:00:30.800Z,24.07
2023-02-13T11:05:37.239Z,22.93
2023-02-13T11:10:41.347Z,20.17
2023-02-13T11:15:58.392Z,25.83
2023-02-13T11:21:04.336Z,28.03
2023-02-13T11:26:09.931Z,20.63
2023-02-13T11:31:21.012Z,21.27
2023-02-13T11:36:27.616Z,23.27
2023-02-13T11:41:31.452Z,23.23
2023-02-13T11:46:48.294Z,21.33
2023-02-13T11:51:53.596Z,25.60
2023-02-13T11:57:06.254Z,20.07
2023-02-13T12:02:19.343Z,26.07
2023-02-13T12:07:25.120Z,17.97
2023-02-13T12:12:33.286Z,27.27
2023-02-13T12:17:37.727Z,19.90
2023-02-13T12:22:49.444Z,22.53
2023-02-13T12:28:00.743Z,23.13
2023-02-13T12:33:18.026Z,21.80
2023-02-13T12:38:32.396Z,21.93
2023-02-13T12:44:14.593Z,18.23
2023-02-13T12:49:41.193Z,23.93
2023-02-13T12:54:52.416Z,23.63
2023-02-13T13:00:13.037Z,22.93
2023-02-13T13:05:30.060Z,21.27
2023-02-13T13:10:46.783Z,19.43
2023-02-13T13:15:55.344Z,21.63
2023-02-13T13:21:20.378Z,24.83
2023-02-13T13:26:32.082Z,18.10
2023-02-13T13:31:37.081Z,27.57
2023-02-13T13:36:45.233Z,19.50
2023-02-13T13:41:54.425Z,26.20
2023-02-13T13:47:00.690Z,26.70
2023-02-13T13:52:25.175Z,25.60
2023-02-13T13:57:28.350Z,28.57
2023-02-13T14:02:40.892Z,26.23
2023-02-13T14:07:45.806Z,22.07
2023-02-13T14:12:50.303Z,24.23
2023-02-13T14:17:54.882Z,22.97
2023-02-13T14:23:08.261Z,21.57
2023-02-13T14:28:22.186Z,27.97
2023-02-13T14:33:27.990Z,24.97
2023-02-13T14:38:32.662Z,26.50
2023-02-13T14:43:39.036Z,26.37
2023-02-13T14:48:46.195Z,22.60
2023-02-13T14:53:53.043Z,21.90
2023-02-13T14:59:00.279Z,24.83
2023-02-13T15:04:08.685Z,25.37
2023-02-13T15:09:22.651Z,27.40
2023-02-13T15:14:31.445Z,26.27
2023-02-13T15:19:35.992Z,25.03
2023-02-13T15:24:46.524Z,19.73
2023-02-13T15:29:57.485Z,22.20
2023-02-13T15:35:00.814Z,21.90
2023-02-13T15:40:20.857Z,29.23
2023-02-13T15:45:24.916Z,25.07
2023-02-13T15:50:31.192Z,23.80
2023-02-13T15:55:36.559Z,29.90
2023-02-13T16:00:42.491Z,26.43
2023-02-13T16:05:46.772Z,26.47
2023-02-13T16:10:51.160Z,28.17
2023-02-13T16:15:54.338Z,29.97
2023-02-13T16:20:57.711Z,24.73
2023-02-13T16:26:05.381Z,30.63
2023-02-13T16:31:08.654Z,26.70
2023-02-13T16:36:28.921Z,30.87
2023-02-13T16:41:34.118Z,28.03
2023-02-13T16:46:37.807Z,31.40
2023-02-13T16:51:42.579Z,25.80
2023-02-13T16:56:48.623Z,37.10
2023-02-13T17:02:04.468Z,32.47
2023-02-13T17:07:13.509Z,31.40
2023-02-13T17:12:19.601Z,32.70
2023-02-13T17:17:23.809Z,33.50
2023-02-13T17:22:34.227Z,35.03
2023-02-13T17:27:38.424Z,45.50
2023-02-13T17:32:41.256Z,35.23
2023-02-13T17:37:45.498Z,41.57
2023-02-13T17:42:53.289Z,38.73
2023-02-13T17:47:59.257Z,34.73
2023-02-13T17:53:03.556Z,34.77
2023-02-13T17:58:07.690Z,32.07
2023-02-13T18:03:12.422Z,38.03
2023-02-13T18:08:15.443Z,31.07
2023-02-13T18:13:19.647Z,31.67
2023-02-13T18:18:22.442Z,35.73
2023-02-13T18:23:25.288Z,46.50
2023-02-13T18:28:29.748Z,35.73
2023-02-13T18:33:32.617Z,36.87
2023-02-13T18:38:35.516Z,38.47
2023-02-13T18:43:39.709Z,44.67
2023-02-13T18:48:42.588Z,47.87
2023-02-13T18:53:45.623Z,40.33
2023-02-13T18:58:49.852Z,36.17
2023-02-13T19:03:53.566Z,35.37
2023-02-13T19:08:57.067Z,39.37
2023-02-13T19:14:02.473Z,37.43
2023-02-13T19:19:07.136Z,39.03
2023-02-13T19:24:11.987Z,42.73
2023-02-13T19:29:16.288Z,38.77
2023-02-13T19:34:19.164Z,38.20
2023-02-13T19:39:21.975Z,37.67
2023-02-13T19:44:26.247Z,35.03
2023-02-13T19:49:29.090Z,40.20
2023-02-13T19:54:32.174Z,34.30
2023-02-13T19:59:36.388Z,39.63
2023-02-13T20:04:39.997Z,44.10
2023-02-13T20:09:42.923Z,45.33
2023-02-13T20:14:47.169Z,48.77
2023-02-13T20:19:51.358Z,47.47
2023-02-13T20:24:54.104Z,41.77
2023-02-13T20:30:06.399Z,44.10
2023-02-13T20:35:10.039Z,38.83
2023-02-13T20:40:13.866Z,42.53
2023-02-13T20:45:18.144Z,50.43
2023-02-13T20:50:21.405Z,40.43
2023-02-13T20:55:24.220Z,39.27
2023-02-13T21:00:28.510Z,42.97
2023-02-13T21:05:31.293Z,53.97
2023-02-13T21:10:34.191Z,39.87
2023-02-13T21:15:38.575Z,38.97
2023-02-13T21:20:41.451Z,37.30
2023-02-13T21:25:44.341Z,42.40
2023-02-13T21:30:48.560Z,47.47
2023-02-13T21:35:51.538Z,40.60
2023-02-13T21:40:54.305Z,39.10
2023-02-13T21:46:06.826Z,35.50
2023-02-13T21:51:11.019Z,37.80
2023-02-13T21:56:15.584Z,42.50
2023-02-13T22:01:26.565Z,39.43
2023-02-13T22:06:31.232Z,41.27
2023-02-13T22:11:34.685Z,39.00
2023-02-13T22:16:39.796Z,38.93
2023-02-13T22:21:42.949Z,38.23
2023-02-13T22:26:46.463Z,42.67
2023-02-13T22:31:50.841Z,41.23
2023-02-13T22:36:53.734Z,36.17
2023-02-13T22:41:56.784Z,31.13
2023-02-13T22:47:00.876Z,36.00
2023-02-13T22:52:03.933Z,34.97
2023-02-13T22:57:06.799Z,36.23
2023-02-13T23:02:11.368Z,43.63
2023-02-13T23:07:15.157Z,38.60
2023-02-13T23:12:35.323Z,36.07
2023-02-13T23:17:58.037Z,44.37
2023-02-13T23:23:01.075Z,46.40
2023-02-13T23:28:04.889Z,48.03
2023-02-13T23:33:09.324Z,36.43
2023-02-13T23:38:12.155Z,38.93
2023-02-13T23:43:14.907Z,39.77
2023-02-13T23:48:18.989Z,43.40
2023-02-13T23:53:21.800Z,42.97
2023-02-13T23:58:24.615Z,39.93
